Sand Hill, Texas
Current Conditions -  °F | °C
As of 4:55 AM on Friday 28 Nov 2014 (Local Time) from KOSA Reporting Station
Clear Clear  
Wind Chill: 35°   Ceiling: Unl
Heat Index: 35°   Visibility: 5mi
Dew Point: 31°   Wind: 3mph
Humidity: 85%   Direction: 140°SE
Pressure: 30.34"   Gusts: NA
Location:  32.7353°N, 94.9492°W
Report Text: KOSA 281055Z AUTO 14003KT 5SM CLR 02/M01 A3034 RMK AO1 T00161006
Loading
Personal Weather Stations






























Interactive Weather Map New forecast layout! Learn more

10-Day Weather Forecast

Advertisements
Track Severe Weather on mobile